Time;durP1;ratioP1;P1;durP2;ratioP2;P2;SDS_P1;SDS_P2;PMS_P1;PMS_P2;Temp;Humidity;BMP_temperature;BMP_pressure;BME280_temperature;BME280_humidity;BME280_pressure;Samples;Min_cycle;Max_cycle;Signal;HPM_P1;HPM_P2
2022/08/12 00:44:28;;;;;;;32.38;7.68;;;;;;;16.84;60.84;100670.41;5026750;28;20139;-68
2022/08/12 00:46:57;;;;;;;26.35;8.10;;;;;;;16.81;60.85;100666.28;5025468;28;20568;-68
2022/08/12 00:49:25;;;;;;;29.08;7.68;;;;;;;16.77;61.11;100670.75;5024019;28;20053;-68
2022/08/12 00:52:05;;;;;;;37.15;7.95;;;;;;;16.76;61.59;100671.88;5024043;28;20045;-69
2022/08/12 00:54:32;;;;;;;26.65;7.75;;;;;;;16.75;62.02;100672.16;5023430;28;20069;-68
2022/08/12 00:57:03;;;;;;;29.45;8.52;;;;;;;16.71;62.24;100661.72;5022855;28;20536;-68
2022/08/12 00:59:31;;;;;;;28.15;7.15;;;;;;;16.70;62.28;100668.38;5023705;28;20045;-67
2022/08/12 01:02:00;;;;;;;24.42;7.63;;;;;;;16.68;62.38;100664.25;5022951;28;20339;-68
2022/08/12 01:12:45;;;;;;;25.20;8.07;;;;;;;16.66;62.75;100669.25;5025162;28;20042;-68
2022/08/12 01:15:13;;;;;;;21.98;7.20;;;;;;;16.68;62.80;100675.28;5025405;28;20049;-68
2022/08/12 01:17:41;;;;;;;28.25;7.43;;;;;;;16.75;62.42;100672.16;5005911;28;20057;-68
2022/08/12 01:20:17;;;;;;;18.55;7.32;;;;;;;16.81;62.25;100671.00;5024510;28;20425;-67
2022/08/12 01:23:07;;;;;;;19.38;6.82;;;;;;;16.84;62.32;100682.25;5022984;28;20116;-68
2022/08/12 01:25:40;;;;;;;16.98;6.00;;;;;;;16.81;62.52;100677.34;5022484;28;20056;-68
2022/08/12 01:28:13;;;;;;;21.70;6.75;;;;;;;16.82;62.56;100680.94;5022915;28;20177;-69
2022/08/12 01:30:42;;;;;;;19.73;7.68;;;;;;;16.80;62.26;100689.50;5022984;28;20041;-68
2022/08/12 01:33:16;;;;;;;29.77;7.65;;;;;;;16.81;62.27;100688.38;5023541;28;20069;-67
2022/08/12 01:35:47;;;;;;;23.17;6.75;;;;;;;16.81;63.24;100688.38;5022153;28;20053;-68
2022/08/12 01:38:18;;;;;;;34.42;7.47;;;;;;;16.79;63.69;100692.56;5023842;28;20046;-69
2022/08/12 01:40:54;;;;;;;22.65;7.25;;;;;;;16.80;63.20;100688.69;5026898;28;20045;-68
2022/08/12 01:43:21;;;;;;;22.70;7.35;;;;;;;16.78;62.77;100683.44;5024915;28;20157;-68
2022/08/12 01:45:59;;;;;;;29.95;8.07;;;;;;;16.80;62.59;100680.41;5024230;28;20552;-67
2022/08/12 01:48:42;;;;;;;44.28;7.97;;;;;;;16.79;62.88;100693.38;5020368;28;20045;-67
2022/08/12 01:51:19;;;;;;;32.35;8.30;;;;;;;16.77;62.98;100683.75;5023091;28;20476;-70
2022/08/12 01:53:57;;;;;;;35.72;8.25;;;;;;;16.81;62.75;100693.09;5022740;28;20049;-69
2022/08/12 01:56:28;;;;;;;23.65;7.00;;;;;;;16.82;63.21;100690.03;5024233;28;20057;-69
2022/08/12 02:01:46;;;;;;;27.42;7.90;;;;;;;16.83;63.58;100688.09;5024101;28;20063;-69
2022/08/12 02:13:02;;;;;;;26.55;8.27;;;;;;;16.75;64.03;100689.56;5026255;28;20068;-68
2022/08/12 02:15:40;;;;;;;24.60;8.10;;;;;;;16.73;64.03;100683.53;5023649;28;20045;-69
2022/08/12 02:18:19;;;;;;;26.05;8.48;;;;;;;16.73;64.34;100698.13;5023828;28;20049;-68
2022/08/12 02:20:52;;;;;;;24.25;8.23;;;;;;;16.74;63.91;100690.69;5024804;28;20069;-67
2022/08/12 02:23:21;;;;;;;27.60;7.35;;;;;;;16.72;64.32;100698.44;5021695;28;20081;-68
2022/08/12 02:25:53;;;;;;;21.52;7.88;;;;;;;16.55;64.99;100680.44;5023577;28;20111;-68
2022/08/12 02:28:21;;;;;;;23.13;8.00;;;;;;;16.65;64.89;100704.31;5023442;28;20147;-67
2022/08/12 02:30:49;;;;;;;25.65;7.60;;;;;;;16.60;64.76;100693.31;5022041;28;20048;-68
2022/08/12 02:33:17;;;;;;;22.08;7.60;;;;;;;16.56;64.67;100695.88;5021818;28;20076;-67
2022/08/12 02:35:43;;;;;;;;;;;;;;;16.56;64.60;100698.63;5022548;28;20136;-68
2022/08/12 02:38:10;;;;;;;25.55;7.78;;;;;;;16.56;64.62;100698.63;5022636;28;20045;-68
2022/08/12 02:40:38;;;;;;;24.27;7.32;;;;;;;16.54;64.54;100697.28;5020812;28;20045;-67
2022/08/12 02:43:13;;;;;;;21.75;7.78;;;;;;;16.49;64.94;100700.91;5024408;28;20053;-68
2022/08/12 02:45:44;;;;;;;28.05;7.20;;;;;;;16.47;64.75;100697.63;5026040;28;20060;-67
2022/08/12 02:48:18;;;;;;;20.58;7.38;;;;;;;16.43;64.73;100702.88;5021803;28;20095;-68
2022/08/12 02:50:49;;;;;;;23.13;8.43;;;;;;;16.46;64.89;100701.50;5023594;28;20045;-67
2022/08/12 02:53:16;;;;;;;20.15;7.40;;;;;;;16.47;65.15;100697.63;5020416;28;20049;-68
2022/08/12 02:55:44;;;;;;;18.48;6.32;;;;;;;16.50;65.67;100699.78;5024652;28;20116;-68
2022/08/12 02:58:11;;;;;;;21.80;6.78;;;;;;;16.59;65.23;100700.78;5022809;28;20049;-68
2022/08/12 03:00:38;;;;;;;23.85;7.43;;;;;;;16.69;64.69;100699.00;5022255;28;20266;-69
2022/08/12 03:03:07;;;;;;;22.92;6.55;;;;;;;16.76;64.64;100696.75;5021294;28;20782;-67
2022/08/12 03:05:37;;;;;;;21.23;7.38;;;;;;;16.89;64.19;100700.72;5020519;28;20428;-69
2022/08/12 03:08:08;;;;;;;25.10;7.75;;;;;;;16.85;63.59;100685.84;5022018;28;20041;-67
2022/08/12 03:10:40;;;;;;;33.38;8.18;;;;;;;17.01;63.57;100706.66;5021923;28;20064;-66
2022/08/12 03:13:07;;;;;;;19.77;7.90;;;;;;;17.04;62.71;100713.56;5023080;28;20096;-68
2022/08/12 03:15:34;;;;;;;23.17;7.25;;;;;;;17.06;63.18;100703.03;5023325;28;20055;-68
2022/08/12 03:18:13;;;;;;;18.80;7.65;;;;;;;17.17;62.24;100695.41;5024392;28;20038;-68
2022/08/12 03:20:39;;;;;;;25.58;8.40;;;;;;;17.29;62.13;100697.72;5023921;28;20084;-67
2022/08/12 03:23:08;;;;;;;21.85;7.45;;;;;;;17.39;61.81;100699.50;5024913;28;20095;-68
2022/08/12 03:25:37;;;;;;;26.30;7.50;;;;;;;17.43;61.62;100700.56;5021070;28;20103;-67
2022/08/12 03:28:04;;;;;;;16.80;7.80;;;;;;;17.53;61.06;100691.31;5025393;28;20065;-68
2022/08/12 03:30:31;;;;;;;29.92;10.52;;;;;;;17.62;60.58;100696.97;5023448;28;20153;-69
2022/08/12 03:32:58;;;;;;;;;;;;;;;17.71;60.40;100687.69;5024145;28;20084;-67
2022/08/12 03:35:27;;;;;;;24.63;8.40;;;;;;;17.81;59.88;100689.47;5022228;28;20451;-68
2022/08/12 03:37:56;;;;;;;19.17;8.82;;;;;;;17.87;59.61;100695.72;5021735;28;20057;-67
2022/08/12 04:02:33;;;;;;;29.75;9.85;;;;;;;18.17;58.60;100690.81;5023816;28;20103;-69
2022/08/12 04:05:00;;;;;;;;;;;;;;;18.25;58.90;100697.59;5024573;28;20053;-69
2022/08/12 04:07:29;;;;;;;37.50;10.48;;;;;;;18.40;59.10;100694.53;5025711;28;19925;-69
2022/08/12 04:09:56;;;;;;;37.58;11.43;;;;;;;18.47;58.34;100693.31;5026778;28;20508;-70
2022/08/12 04:15:12;;;;;;;38.85;11.18;;;;;;;18.49;57.58;100694.66;5009531;28;20072;-69
2022/08/12 04:17:41;;;;;;;30.08;12.18;;;;;;;18.53;57.16;100697.63;5027210;28;20056;-68
2022/08/12 04:20:11;;;;;;;33.17;11.88;;;;;;;18.57;56.59;100698.66;5025441;28;20061;-69
2022/08/12 04:22:39;;;;;;;27.73;10.40;;;;;;;18.60;57.36;100700.00;5026473;28;20052;-69
2022/08/12 04:25:07;;;;;;;37.35;12.95;;;;;;;18.66;56.32;100690.44;5026931;28;20151;-69
2022/08/12 04:27:33;;;;;;;28.48;12.27;;;;;;;18.70;56.29;100697.00;5026792;28;20053;-69
2022/08/12 04:30:00;;;;;;;40.75;13.80;;;;;;;18.74;55.68;100691.69;5024607;28;20420;-70
2022/08/12 04:32:27;;;;;;;45.60;15.27;;;;;;;18.77;55.39;100686.34;5025137;28;20057;-69
2022/08/12 04:34:53;;;;;;;42.53;15.45;;;;;;;18.82;55.18;100699.28;5025462;28;20304;-69
2022/08/12 04:37:19;;;;;;;49.25;15.40;;;;;;;18.89;55.07;100694.13;5025419;28;20536;-70
2022/08/12 04:39:47;;;;;;;40.63;15.88;;;;;;;18.93;54.35;100695.13;5023111;28;20532;-68
2022/08/12 04:42:13;;;;;;;49.42;16.70;;;;;;;18.96;54.46;100693.72;5024365;28;20057;-69
2022/08/12 04:44:40;;;;;;;43.63;16.58;;;;;;;19.00;53.93;100705.84;5024046;28;20073;-69
2022/08/12 04:47:09;;;;;;;43.80;16.10;;;;;;;19.04;53.84;100700.50;5025541;28;20132;-69
2022/08/12 04:49:38;;;;;;;49.15;15.55;;;;;;;19.09;53.92;100698.44;5026578;28;20103;-68
2022/08/12 04:52:04;;;;;;;41.25;15.98;;;;;;;19.15;53.58;100696.38;5024919;28;20042;-68
2022/08/12 04:54:32;;;;;;;42.65;14.90;;;;;;;19.24;53.56;100696.47;5028893;28;20100;-69
2022/08/12 04:57:01;;;;;;;44.33;16.13;;;;;;;19.35;53.01;100694.28;5027374;28;20061;-68
2022/08/12 04:59:27;;;;;;;42.50;15.65;;;;;;;19.41;52.93;100698.56;5023363;28;20041;-67
2022/08/12 05:01:53;;;;;;;50.38;15.98;;;;;;;19.46;52.64;100686.53;5024475;28;20512;-68
2022/08/12 05:04:20;;;;;;;34.92;14.98;;;;;;;19.55;52.66;100692.97;5025364;28;20088;-69
2022/08/12 05:06:47;;;;;;;47.13;14.88;;;;;;;19.61;52.59;100691.72;5027432;28;20056;-67
2022/08/12 05:09:13;;;;;;;41.40;14.02;;;;;;;19.69;52.05;100696.50;5026030;28;20033;-69
2022/08/12 05:11:40;;;;;;;46.75;13.52;;;;;;;19.73;52.01;100695.88;5009229;28;20156;-69
2022/08/12 05:14:11;;;;;;;36.80;13.15;;;;;;;19.83;51.99;100687.31;5024233;28;20521;-68
2022/08/12 05:16:38;;;;;;;48.00;14.52;;;;;;;19.95;51.87;100695.88;5023172;28;20068;-69
2022/08/12 05:19:05;;;;;;;38.58;13.18;;;;;;;19.97;51.61;100687.25;5025287;28;20100;-69
2022/08/12 05:21:32;;;;;;;35.38;13.20;;;;;;;19.98;51.49;100695.28;5023631;28;20049;-69
2022/08/12 05:23:59;;;;;;;31.27;11.93;;;;;;;20.01;51.55;100698.53;5027205;28;20366;-69
2022/08/12 05:26:25;;;;;;;36.20;14.18;;;;;;;20.10;51.55;100694.69;5028729;28;20606;-69
2022/08/12 05:28:52;;;;;;;38.10;11.93;;;;;;;20.20;51.62;100703.88;5026894;28;20140;-68
2022/08/12 05:31:20;;;;;;;32.20;11.20;;;;;;;20.26;51.36;100708.97;5026424;28;20533;-68
2022/08/12 05:33:46;;;;;;;39.28;12.50;;;;;;;20.37;50.88;100700.38;5023785;28;20140;-68
2022/08/12 05:36:15;;;;;;;35.40;11.50;;;;;;;20.42;50.75;100697.44;5023433;28;20096;-68
2022/08/12 05:38:57;;;;;;;35.40;11.02;;;;;;;20.46;50.96;100692.91;5026186;28;20081;-69
2022/08/12 05:41:25;;;;;;;51.30;13.27;;;;;;;20.46;51.09;100689.28;5025782;28;20492;-70
2022/08/12 05:43:53;;;;;;;39.05;12.65;;;;;;;20.46;50.91;100680.97;5022640;28;20474;-70
2022/08/12 05:46:22;;;;;;;35.30;11.25;;;;;;;20.54;50.44;100686.53;5025404;28;20053;-70
2022/08/12 05:48:48;;;;;;;34.15;11.98;;;;;;;20.58;49.34;100688.69;5025294;28;20451;-70
2022/08/12 05:51:14;;;;;;;38.20;12.07;;;;;;;20.64;49.66;100692.97;5023490;28;20539;-69
2022/08/12 05:53:41;;;;;;;33.47;12.35;;;;;;;20.68;49.15;100688.41;5027425;28;20336;-69
2022/08/12 05:56:18;;;;;;;42.50;12.67;;;;;;;20.77;49.77;100682.88;5024659;28;20497;-68
2022/08/12 05:58:44;;;;;;;41.03;12.20;;;;;;;20.79;49.10;100686.13;5004115;28;20083;-67
2022/08/12 06:01:10;;;;;;;51.60;13.10;;;;;;;20.80;49.32;100691.41;5029043;28;20081;-69
2022/08/12 06:03:38;;;;;;;46.78;13.77;;;;;;;20.89;48.79;100690.59;5025165;28;20523;-68
2022/08/12 06:06:05;;;;;;;40.95;11.50;;;;;;;21.05;48.82;100691.78;5026598;28;20057;-69
2022/08/12 06:08:34;;;;;;;32.10;10.25;;;;;;;21.21;48.12;100696.88;5024893;28;20134;-68
2022/08/12 06:11:01;;;;;;;24.77;7.45;;;;;;;21.41;47.11;100689.84;5017011;28;20056;-68
2022/08/12 06:13:28;;;;;;;24.58;8.38;;;;;;;21.66;46.83;100693.00;5023322;28;20068;-69
2022/08/12 06:15:54;;;;;;;32.53;8.55;;;;;;;21.92;46.13;100690.16;5024457;28;20483;-69
2022/08/12 06:18:20;;;;;;;23.10;7.97;;;;;;;22.19;45.71;100698.44;4989873;28;20188;-68
2022/08/12 06:20:48;;;;;;;30.58;8.57;;;;;;;22.32;45.18;100689.06;5016937;28;20363;-68
2022/08/12 06:23:14;;;;;;;25.08;8.38;;;;;;;22.55;45.02;100683.25;5022584;28;20493;-68
2022/08/12 06:25:40;;;;;;;28.55;9.05;;;;;;;22.72;44.34;100681.56;5025098;28;20130;-69
2022/08/12 06:28:14;;;;;;;33.97;9.20;;;;;;;22.79;44.17;100679.88;5023831;28;20084;-69
2022/08/12 06:30:40;;;;;;;20.65;7.20;;;;;;;22.93;43.13;100679.63;5027897;28;20430;-68
2022/08/12 06:33:07;;;;;;;22.48;6.93;;;;;;;23.12;42.90;100686.69;5024570;28;20049;-67
2022/08/12 06:35:33;;;;;;;37.95;10.02;;;;;;;23.33;42.48;100670.00;5024526;28;20053;-68
2022/08/12 06:38:02;;;;;;;23.80;10.07;;;;;;;23.44;42.27;100672.38;5023565;28;20444;-67
2022/08/12 06:43:13;;;;;;;35.80;10.07;;;;;;;23.79;42.11;100674.84;5012506;28;20100;-69
2022/08/12 06:45:48;;;;;;;25.48;8.63;;;;;;;23.82;41.47;100681.72;5011088;28;20547;-69
2022/08/12 06:48:14;;;;;;;27.17;8.60;;;;;;;23.82;41.45;100682.53;5020485;28;20061;-67
2022/08/12 06:50:41;;;;;;;23.58;8.63;;;;;;;24.00;41.23;100677.59;5020718;28;20056;-69
2022/08/12 06:53:09;;;;;;;32.17;8.88;;;;;;;24.20;40.33;100681.50;5018726;28;20516;-70
2022/08/12 06:55:36;;;;;;;25.38;7.85;;;;;;;24.38;40.56;100680.47;5018531;28;20068;-69
2022/08/12 06:58:04;;;;;;;28.38;10.02;;;;;;;24.50;39.96;100683.25;5017204;28;20049;-68
2022/08/12 07:00:35;;;;;;;20.25;8.07;;;;;;;24.52;39.66;100685.72;5003899;28;20144;-68
2022/08/12 07:03:02;;;;;;;31.48;8.70;;;;;;;24.54;39.49;100681.41;5017315;28;20037;-70
2022/08/12 07:05:29;;;;;;;35.90;8.88;;;;;;;24.47;39.72;100676.38;5012242;28;20054;-71
2022/08/12 07:08:06;;;;;;;22.42;8.23;;;;;;;24.58;39.30;100673.13;4657097;28;10000133;-67
2022/08/12 07:10:38;;;;;;;16.50;7.50;;;;;;;24.47;38.68;100670.78;5012365;28;20050;-70
2022/08/12 07:13:04;;;;;;;19.27;7.40;;;;;;;24.44;38.94;100682.69;5012357;28;20095;-70
2022/08/12 07:15:30;;;;;;;27.17;6.93;;;;;;;24.52;38.30;100669.75;5016647;28;20053;-69
2022/08/12 07:18:18;;;;;;;23.50;5.55;;;;;;;24.54;36.74;100672.22;5002159;28;20298;-70
2022/08/12 07:20:48;;;;;;;19.50;5.63;;;;;;;24.58;36.68;100676.72;5018506;28;20045;-70
2022/08/12 07:23:16;;;;;;;16.55;5.47;;;;;;;24.71;36.51;100677.56;5007578;28;20376;-70
2022/08/12 07:25:44;;;;;;;19.25;5.68;;;;;;;24.68;36.15;100672.69;5006623;28;20410;-68
2022/08/12 07:28:12;;;;;;;14.80;5.57;;;;;;;24.76;35.89;100673.75;5012961;28;20117;-68
2022/08/12 07:30:40;;;;;;;18.38;5.40;;;;;;;24.87;35.95;100674.09;5009805;28;20061;-69
2022/08/12 07:33:07;;;;;;;16.70;5.32;;;;;;;24.97;35.67;100667.19;5009488;28;20199;-69
2022/08/12 07:35:44;;;;;;;24.83;6.13;;;;;;;25.10;35.81;100667.97;5004518;28;20041;-69
2022/08/12 07:38:26;;;;;;;22.13;5.60;;;;;;;25.28;35.43;100668.50;5014872;28;20517;-69
2022/08/12 07:40:56;;;;;;;14.32;5.80;;;;;;;25.58;34.95;100671.00;5022214;28;20087;-68
2022/08/12 07:43:23;;;;;;;24.20;5.78;;;;;;;25.90;34.62;100671.88;5015712;28;20058;-69
2022/08/12 07:45:50;;;;;;;21.87;6.03;;;;;;;26.19;34.15;100672.66;5022476;28;20134;-69
2022/08/12 07:48:15;;;;;;;;;;;;;;;26.44;33.77;100674.47;5017948;28;20771;-68
2022/08/12 07:50:42;;;;;;;26.43;6.70;;;;;;;26.42;33.36;100671.22;5020733;28;20506;-67
2022/08/12 07:53:08;;;;;;;19.02;5.55;;;;;;;26.37;33.39;100671.50;4668171;28;10000908;-69
2022/08/12 07:55:35;;;;;;;25.70;6.20;;;;;;;26.43;33.19;100664.44;5017394;28;20076;-69
2022/08/12 07:58:04;;;;;;;22.00;5.60;;;;;;;26.46;33.48;100672.94;5009387;28;20045;-68
2022/08/12 08:00:32;;;;;;;22.70;6.22;;;;;;;26.67;33.06;100668.22;5024398;28;20100;-70
2022/08/12 08:02:59;;;;;;;23.55;5.82;;;;;;;26.77;32.67;100673.25;5023366;28;20401;-69
2022/08/12 08:05:29;;;;;;;19.10;5.57;;;;;;;27.02;32.11;100665.44;5021522;28;20467;-70
2022/08/12 08:08:01;;;;;;;16.27;5.97;;;;;;;27.39;31.58;100663.41;5026245;28;20578;-69
2022/08/12 08:10:28;;;;;;;19.65;5.30;;;;;;;27.69;30.90;100668.44;5021932;28;20488;-69
2022/08/12 08:12:54;;;;;;;17.30;5.75;;;;;;;27.77;31.06;100664.56;5025270;28;20452;-68
2022/08/12 08:15:24;;;;;;;13.00;4.90;;;;;;;27.93;29.76;100660.84;5024114;28;20136;-68
2022/08/12 08:17:58;;;;;;;15.60;4.68;;;;;;;27.91;29.90;100657.59;5012276;28;20331;-69
2022/08/12 08:20:27;;;;;;;18.77;5.20;;;;;;;28.23;29.33;100652.59;5021149;28;20049;-69
2022/08/12 08:22:57;;;;;;;21.90;5.40;;;;;;;28.55;28.46;100654.28;5015734;28;20103;-69
2022/08/12 08:25:30;;;;;;;15.20;4.72;;;;;;;28.45;28.46;100653.75;5024417;28;20071;-69
2022/08/12 08:28:01;;;;;;;19.80;4.65;;;;;;;29.07;27.78;100649.03;5000551;28;20046;-68
2022/08/12 08:30:31;;;;;;;20.15;4.95;;;;;;;29.51;27.12;100649.59;5011584;28;20444;-68
2022/08/12 08:32:57;;;;;;;17.77;4.72;;;;;;;30.09;26.47;100645.38;5008734;28;20076;-69
2022/08/12 08:35:24;;;;;;;17.47;4.90;;;;;;;30.19;26.05;100648.69;4659688;28;10000600;-70
2022/08/12 08:37:50;;;;;;;19.42;5.13;;;;;;;30.14;26.10;100652.66;5012005;28;20533;-68
2022/08/12 08:43:02;;;;;;;21.45;5.15;;;;;;;29.52;26.35;100645.56;5009498;28;20084;-69
2022/08/12 08:45:29;;;;;;;22.73;5.53;;;;;;;29.61;26.31;100640.47;5010685;28;20533;-68
2022/08/12 08:47:56;;;;;;;25.20;5.55;;;;;;;29.86;26.14;100640.72;5014170;28;20076;-68
2022/08/12 08:50:22;;;;;;;18.90;6.32;;;;;;;30.15;25.78;100640.19;5015527;28;20069;-68
2022/08/12 08:52:48;;;;;;;16.20;5.83;;;;;;;30.39;25.25;100644.41;5014772;28;20041;-68
2022/08/12 08:55:15;;;;;;;23.53;5.53;;;;;;;30.28;25.25;100647.16;5014243;28;20525;-67
2022/08/12 08:57:46;;;;;;;17.50;5.95;;;;;;;30.34;25.33;100644.78;5018707;28;20378;-68
2022/08/12 09:00:13;;;;;;;21.98;5.93;;;;;;;30.49;25.74;100637.22;5013377;28;20041;-68
2022/08/12 09:02:41;;;;;;;18.80;5.85;;;;;;;30.83;24.98;100639.91;5018434;28;20068;-69
2022/08/12 09:05:07;;;;;;;32.10;5.93;;;;;;;31.30;24.17;100636.53;5016961;28;20057;-68
2022/08/12 09:07:42;;;;;;;25.38;5.63;;;;;;;32.14;23.18;100620.53;5014563;28;20045;-68
2022/08/12 09:10:08;;;;;;;21.45;5.85;;;;;;;32.97;22.83;100628.09;5017850;28;20049;-69
2022/08/12 09:15:20;;;;;;;34.25;6.30;;;;;;;33.61;21.82;100622.56;5019211;28;20057;-69
2022/08/12 09:17:54;;;;;;;18.65;5.40;;;;;;;33.89;21.52;100627.22;5020441;28;20115;-70
2022/08/12 09:20:22;;;;;;;23.08;5.68;;;;;;;33.87;21.04;100623.19;5016404;28;20041;-68
2022/08/12 09:22:48;;;;;;;28.55;6.45;;;;;;;33.72;21.51;100620.47;5016713;28;20051;-69
2022/08/12 09:25:16;;;;;;;29.90;6.03;;;;;;;33.08;22.04;100623.22;5015682;28;20081;-68
2022/08/12 09:27:42;;;;;;;21.58;5.85;;;;;;;33.18;22.28;100620.75;5014769;28;20053;-68
2022/08/12 09:30:14;;;;;;;23.17;6.25;;;;;;;33.08;22.39;100620.38;5014186;28;20416;-68
2022/08/12 09:32:42;;;;;;;31.70;6.72;;;;;;;33.11;21.60;100621.59;5010276;28;20046;-68
2022/08/12 09:35:10;;;;;;;19.35;5.78;;;;;;;33.44;21.76;100624.28;5010646;28;20052;-67
2022/08/12 09:37:37;;;;;;;28.67;6.63;;;;;;;34.08;20.83;100614.53;5017348;28;20057;-68
2022/08/12 09:40:04;;;;;;;22.27;6.07;;;;;;;33.18;21.25;100620.75;5018172;28;20513;-68
2022/08/12 09:45:21;;;;;;;33.25;6.30;;;;;;;33.28;21.70;100616.25;5020236;28;20054;-69
2022/08/12 09:47:47;;;;;;;28.88;6.18;;;;;;;34.12;21.41;100613.69;5011338;28;20061;-67
2022/08/12 09:50:15;;;;;;;22.65;6.25;;;;;;;34.45;19.92;100608.53;5009125;28;20049;-68
2022/08/12 09:52:42;;;;;;;28.92;6.65;;;;;;;34.12;20.45;100610.88;5010326;28;20531;-67
2022/08/12 09:55:11;;;;;;;17.70;5.72;;;;;;;34.21;20.19;100602.69;5011608;28;20053;-70
2022/08/12 09:57:37;;;;;;;17.90;5.80;;;;;;;34.18;20.11;100606.34;5012776;28;20424;-68
2022/08/12 10:00:03;;;;;;;23.45;6.53;;;;;;;34.35;20.27;100599.72;5016496;28;20052;-68
2022/08/12 10:02:38;;;;;;;22.52;5.85;;;;;;;33.94;20.92;100597.63;5015036;28;20054;-69
2022/08/12 10:05:05;;;;;;;40.13;6.65;;;;;;;33.95;20.87;100604.91;5017912;28;20049;-68
2022/08/12 10:07:32;;;;;;;35.35;6.47;;;;;;;33.62;21.08;100595.84;5015379;28;20042;-68
2022/08/12 10:09:58;;;;;;;34.47;6.68;;;;;;;33.24;21.84;100600.06;5015139;28;20103;-68
2022/08/12 10:15:11;;;;;;;13.35;6.25;;;;;;;35.00;19.58;100598.19;5016783;28;20103;-68
2022/08/12 10:17:37;;;;;;;17.67;5.90;;;;;;;35.48;18.99;100589.84;5015394;28;20045;-69
2022/08/12 10:20:04;;;;;;;19.40;6.13;;;;;;;35.65;18.79;100582.31;5019669;28;20106;-68
2022/08/12 10:22:33;;;;;;;18.90;5.80;;;;;;;35.39;18.82;100578.22;5018685;28;20530;-68
2022/08/12 10:30:28;;;;;;;15.77;5.40;;;;;;;35.20;19.19;100578.47;5019677;28;20056;-68
2022/08/12 10:32:57;;;;;;;19.17;6.03;;;;;;;35.97;18.51;100577.31;5019029;28;20521;-66
2022/08/12 10:35:27;;;;;;;25.88;6.53;;;;;;;36.23;18.06;100575.69;5014732;28;20148;-68
2022/08/12 10:37:55;;;;;;;17.23;6.05;;;;;;;36.33;17.96;100568.97;5005038;28;20042;-67
2022/08/12 10:40:22;;;;;;;21.33;6.05;;;;;;;37.01;17.72;100570.91;5010751;28;20111;-69
2022/08/12 10:45:32;;;;;;;16.85;5.88;;;;;;;37.61;17.15;100564.28;5013653;28;20064;-67
2022/08/12 10:48:00;;;;;;;24.45;6.10;;;;;;;37.78;16.81;100564.28;5013174;28;20046;-68
2022/08/12 10:50:27;;;;;;;19.77;6.43;;;;;;;37.60;16.89;100562.69;5010753;28;20140;-68
2022/08/12 10:52:54;;;;;;;20.65;6.00;;;;;;;37.41;17.03;100558.66;5018918;28;20505;-69
2022/08/12 10:55:20;;;;;;;20.73;5.80;;;;;;;37.09;17.48;100563.84;5020621;28;20223;-67
2022/08/12 10:57:46;;;;;;;20.65;6.18;;;;;;;36.88;17.49;100547.97;5014855;28;20065;-68
2022/08/12 11:00:14;;;;;;;22.42;6.00;;;;;;;37.27;17.26;100542.66;5017367;28;20135;-69
2022/08/12 11:02:48;;;;;;;16.77;6.07;;;;;;;38.10;16.32;100543.50;5015871;28;20417;-66
2022/08/12 11:05:14;;;;;;;19.35;6.35;;;;;;;38.11;16.35;100541.47;5019027;28;20052;-67
2022/08/12 11:07:40;;;;;;;23.63;6.55;;;;;;;37.84;16.53;100542.53;5004118;28;20152;-67
2022/08/12 11:10:07;;;;;;;;;;;;;;;37.30;17.03;100536.91;5022632;28;20179;-67
2022/08/12 11:12:36;;;;;;;32.50;6.55;;;;;;;37.92;16.69;100540.31;5016150;28;20687;-67
2022/08/12 11:15:04;;;;;;;17.23;6.13;;;;;;;38.39;15.98;100521.91;5021365;28;20041;-68
2022/08/12 11:17:31;;;;;;;24.45;6.30;;;;;;;38.90;15.57;100531.91;5022683;28;20140;-68
2022/08/12 11:19:57;;;;;;;15.07;5.47;;;;;;;38.49;15.47;100526.56;5019491;28;20603;-68
2022/08/12 11:22:23;;;;;;;24.63;6.00;;;;;;;38.38;15.64;100526.03;5022941;28;20053;-69
2022/08/12 11:24:48;;;;;;;19.10;5.85;;;;;;;38.95;14.82;100514.22;5021231;28;20053;-69
2022/08/12 11:27:16;;;;;;;16.35;6.22;;;;;;;39.88;14.02;100523.09;5016667;28;20060;-67
2022/08/12 11:29:42;;;;;;;14.85;5.90;;;;;;;40.27;14.07;100515.16;5021638;28;20045;-69
2022/08/12 11:32:08;;;;;;;27.40;5.90;;;;;;;40.74;13.66;100512.66;5021886;28;20049;-69
2022/08/12 11:34:34;;;;;;;24.80;6.10;;;;;;;40.60;13.92;100508.25;5025045;28;20479;-67
2022/08/12 11:37:06;;;;;;;18.48;5.85;;;;;;;40.40;14.17;100500.78;5041295;28;20103;-67
2022/08/12 11:39:32;;;;;;;18.13;5.80;;;;;;;40.60;13.70;100496.81;5016115;28;20405;-69
2022/08/12 11:41:58;;;;;;;24.42;5.63;;;;;;;40.31;13.56;100509.34;5021743;28;20516;-67
2022/08/12 11:44:26;;;;;;;;;;;;;;;39.62;13.94;100505.97;5022833;28;20053;-69
2022/08/12 11:46:56;;;;;;;13.50;5.45;;;;;;;39.28;14.49;100503.38;5024250;28;19971;-69
2022/08/12 11:49:23;;;;;;;30.08;6.25;;;;;;;39.09;14.39;100508.06;5018816;28;20148;-69
2022/08/12 11:51:49;;;;;;;18.50;5.72;;;;;;;38.61;14.75;100507.84;5022307;28;20144;-70
2022/08/12 11:54:15;;;;;;;19.85;5.50;;;;;;;38.75;15.04;100503.78;5021861;28;20050;-69
2022/08/12 11:56:42;;;;;;;16.88;5.70;;;;;;;38.22;15.10;100487.72;5025679;28;20057;-68
2022/08/12 11:59:08;;;;;;;29.77;6.20;;;;;;;37.57;15.66;100495.97;5023632;28;20041;-69
2022/08/12 12:01:35;;;;;;;22.88;5.60;;;;;;;36.78;16.53;100487.16;5024553;28;20100;-68
2022/08/12 12:04:01;;;;;;;21.05;5.32;;;;;;;37.15;16.33;100481.50;5023804;28;20053;-70
2022/08/12 12:06:27;;;;;;;21.52;5.70;;;;;;;37.82;15.49;100482.28;5021832;28;20058;-71
2022/08/12 12:08:53;;;;;;;20.10;5.35;;;;;;;38.59;15.21;100473.25;5018440;28;20099;-67
2022/08/12 12:11:20;;;;;;;28.27;5.35;;;;;;;38.97;14.71;100468.84;5022892;28;20057;-68
2022/08/12 12:13:46;;;;;;;24.70;6.10;;;;;;;39.05;14.08;100464.53;5024198;28;20573;-68
2022/08/12 12:16:12;;;;;;;;;;;;;;;39.50;13.90;100471.22;5021736;28;20509;-70
2022/08/12 12:18:39;;;;;;;16.17;5.13;;;;;;;40.10;13.85;100465.88;5020331;28;20014;-67
2022/08/12 12:21:07;;;;;;;14.93;5.05;;;;;;;40.60;13.28;100462.44;5019523;28;20128;-68
2022/08/12 12:23:34;;;;;;;21.48;5.20;;;;;;;40.75;13.23;100466.34;5024475;28;20045;-68
2022/08/12 12:26:00;;;;;;;13.35;5.53;;;;;;;40.95;12.84;100465.16;5020308;28;20060;-68
2022/08/12 12:28:26;;;;;;;11.18;5.07;;;;;;;41.15;12.54;100450.44;5020334;28;20042;-69
2022/08/12 12:30:52;;;;;;;20.52;6.05;;;;;;;41.48;12.35;100457.66;5021508;28;20902;-70
2022/08/12 12:33:19;;;;;;;12.43;4.80;;;;;;;41.14;11.83;100456.63;5023535;28;20049;-69
2022/08/12 12:35:47;;;;;;;13.02;4.55;;;;;;;40.81;12.10;100455.06;5019699;28;20057;-67
2022/08/12 12:38:14;;;;;;;16.02;5.20;;;;;;;40.43;12.71;100454.03;5018301;28;20132;-70
2022/08/12 12:40:42;;;;;;;18.45;5.15;;;;;;;40.10;13.50;100460.16;5021627;28;20046;-68
2022/08/12 12:43:08;;;;;;;16.35;4.78;;;;;;;40.67;12.94;100454.34;5024121;28;20047;-70
2022/08/12 12:45:36;;;;;;;;;;;;;;;41.27;12.58;100457.31;5016039;28;20042;-68
2022/08/12 12:48:04;;;;;;;17.35;5.22;;;;;;;41.37;12.41;100450.34;5017719;28;20023;-68
2022/08/12 12:50:32;;;;;;;15.43;5.20;;;;;;;41.21;12.59;100442.00;5019741;28;20428;-69
2022/08/12 12:52:59;;;;;;;12.23;4.90;;;;;;;41.23;12.24;100450.94;5019030;28;20053;-68
2022/08/12 12:55:26;;;;;;;15.63;5.18;;;;;;;40.75;12.52;100448.34;5020508;28;20069;-67
2022/08/12 12:57:53;;;;;;;14.63;4.93;;;;;;;40.46;12.81;100447.41;5024788;28;20137;-68
2022/08/12 13:00:20;;;;;;;16.85;5.07;;;;;;;40.22;12.96;100442.13;5007374;28;20493;-69
2022/08/12 13:02:55;;;;;;;13.50;4.93;;;;;;;40.33;12.93;100443.81;5024424;28;20068;-66
2022/08/12 13:05:24;;;;;;;18.08;5.10;;;;;;;40.56;12.66;100448.25;5016831;28;20639;-68
2022/08/12 13:07:51;;;;;;;17.55;5.18;;;;;;;40.70;12.71;100441.13;5019872;28;20045;-66
2022/08/12 13:10:19;;;;;;;23.75;5.10;;;;;;;40.50;12.82;100439.47;5020186;28;20575;-68
2022/08/12 13:12:46;;;;;;;13.55;4.63;;;;;;;40.68;12.28;100435.09;5021592;28;20041;-68